Time;durP1;ratioP1;P1;durP2;ratioP2;P2;SDS_P1;SDS_P2;PMS_P1;PMS_P2;Temp;Humidity;BMP_temperature;BMP_pressure;BME280_temperature;BME280_humidity;BME280_pressure;Samples;Min_cycle;Max_cycle;Signal;HPM_P1;HPM_P2
2023/03/13 00:01:27;;;;;;;23.80;3.55;;;9.60;99.90;;;;;;4870400;29;20113;-34
2023/03/13 00:03:54;;;;;;;16.63;3.38;;;9.70;99.90;;;;;;4860581;29;20132;-35
2023/03/13 00:06:21;;;;;;;12.38;3.15;;;9.70;99.90;;;;;;4868513;29;20029;-36
2023/03/13 00:08:47;;;;;;;15.88;3.17;;;9.80;99.90;;;;;;4858899;29;20498;-38
2023/03/13 00:11:14;;;;;;;21.08;3.83;;;9.80;99.90;;;;;;4856695;29;20162;-37
2023/03/13 00:13:41;;;;;;;13.13;2.67;;;9.80;99.90;;;;;;4855067;29;20025;-34
2023/03/13 00:16:09;;;;;;;15.15;2.67;;;9.80;99.90;;;;;;4854775;29;20041;-38
2023/03/13 00:18:35;;;;;;;23.60;2.78;;;9.80;99.90;;;;;;4855425;29;20562;-36
2023/03/13 00:21:08;;;;;;;20.38;2.95;;;9.80;99.90;;;;;;4859547;29;20117;-36
2023/03/13 00:23:36;;;;;;;18.60;2.60;;;9.80;99.90;;;;;;4861914;29;20495;-36
2023/03/13 00:26:07;;;;;;;14.85;2.72;;;9.70;99.90;;;;;;4857594;29;20547;-38
2023/03/13 00:28:34;;;;;;;17.35;2.25;;;9.80;99.90;;;;;;4861532;29;20025;-36
2023/03/13 00:31:05;;;;;;;10.50;2.72;;;9.70;99.90;;;;;;4864315;29;20065;-34
2023/03/13 00:33:32;;;;;;;13.38;2.35;;;9.70;99.90;;;;;;4876020;29;20379;-33
2023/03/13 00:36:18;;;;;;;15.83;3.10;;;9.70;99.90;;;;;;4863460;29;20380;-35
2023/03/13 00:38:44;;;;;;;16.98;3.40;;;9.70;99.90;;;;;;4862687;29;20037;-38
2023/03/13 00:41:15;;;;;;;11.25;3.00;;;9.70;99.90;;;;;;4858997;29;20168;-38
2023/03/13 00:43:42;;;;;;;22.70;3.28;;;9.60;99.90;;;;;;4861000;29;20029;-32
2023/03/13 00:46:09;;;;;;;21.58;3.28;;;9.60;99.90;;;;;;4863139;29;20116;-37
2023/03/13 00:48:35;;;;;;;10.95;2.90;;;9.60;99.90;;;;;;4852029;29;20041;-36
2023/03/13 00:51:02;;;;;;;13.75;2.58;;;9.70;99.90;;;;;;4860274;29;20399;-35
2023/03/13 00:53:28;;;;;;;20.75;3.13;;;9.70;99.90;;;;;;4849282;29;20366;-37
2023/03/13 00:56:04;;;;;;;12.25;2.85;;;9.70;99.90;;;;;;4855934;29;20037;-34
2023/03/13 00:58:33;;;;;;;17.10;2.90;;;9.70;99.90;;;;;;4854249;29;20040;-37
2023/03/13 01:01:19;;;;;;;11.73;2.85;;;9.70;99.90;;;;;;4859255;29;20042;-39
2023/03/13 01:03:48;;;;;;;17.58;3.08;;;9.70;99.90;;;;;;4841613;29;20057;-37
2023/03/13 01:06:16;;;;;;;19.40;2.80;;;9.80;99.90;;;;;;4855880;29;20097;-33
2023/03/13 01:08:42;;;;;;;15.63;3.88;;;9.80;99.90;;;;;;4860271;29;20029;-37
2023/03/13 01:11:10;;;;;;;11.40;3.13;;;9.80;99.90;;;;;;4859115;29;20487;-35
2023/03/13 01:13:36;;;;;;;12.02;3.58;;;9.80;99.90;;;;;;4859534;29;20041;-38
2023/03/13 01:16:12;;;;;;;13.23;3.30;;;9.80;99.90;;;;;;4859410;29;20046;-33
2023/03/13 01:18:40;;;;;;;10.13;3.53;;;9.90;99.90;;;;;;4859178;29;20064;-31
2023/03/13 01:21:06;;;;;;;14.27;3.58;;;9.90;99.90;;;;;;4857737;29;20559;-32
2023/03/13 01:23:32;;;;;;;11.10;3.33;;;9.90;99.90;;;;;;4860131;29;20026;-36
2023/03/13 01:25:58;;;;;;;17.20;3.38;;;9.90;99.90;;;;;;4860097;29;20033;-34
2023/03/13 01:28:25;;;;;;;14.85;2.92;;;9.90;99.90;;;;;;4852573;29;20037;-31
2023/03/13 01:30:51;;;;;;;15.27;4.18;;;9.90;99.90;;;;;;4859677;29;20491;-33
2023/03/13 01:33:17;;;;;;;14.23;2.97;;;9.90;99.90;;;;;;4858986;29;20038;-35
2023/03/13 01:35:43;;;;;;;11.48;3.35;;;9.90;99.90;;;;;;4858493;29;20037;-32
2023/03/13 01:38:09;;;;;;;11.15;3.45;;;10.00;99.90;;;;;;4859995;29;20041;-31
2023/03/13 01:40:47;;;;;;;15.90;3.55;;;10.00;99.90;;;;;;4862125;29;20029;-33
2023/03/13 01:43:22;;;;;;;9.10;3.58;;;10.00;99.90;;;;;;4862600;29;20426;-32
2023/03/13 01:46:00;;;;;;;11.20;3.25;;;10.00;99.90;;;;;;4853414;29;20109;-32
2023/03/13 01:48:50;;;;;;;8.23;3.13;;;10.10;99.90;;;;;;4859397;29;20475;-31
2023/03/13 01:51:18;;;;;;;13.20;3.80;;;10.10;99.90;;;;;;4860425;29;20395;-34
2023/03/13 01:53:48;;;;;;;10.43;4.18;;;10.10;99.90;;;;;;4861984;29;20037;-34
2023/03/13 01:56:20;;;;;;;13.20;4.63;;;10.20;99.90;;;;;;4859518;29;20487;-33
2023/03/13 01:58:48;;;;;;;11.65;3.80;;;10.20;99.90;;;;;;4862454;29;20040;-48
2023/03/13 02:01:15;;;;;;;11.25;4.55;;;10.20;99.90;;;;;;4861731;29;20033;-47
2023/03/13 02:03:42;;;;;;;10.43;4.22;;;10.20;99.90;;;;;;4860771;29;20041;-28
2023/03/13 02:06:09;;;;;;;11.18;4.57;;;10.30;99.90;;;;;;4859602;29;20058;-34
2023/03/13 02:08:52;;;;;;;21.03;4.53;;;10.30;99.90;;;;;;4862367;29;20033;-34
2023/03/13 02:11:29;;;;;;;10.25;4.60;;;10.40;99.90;;;;;;4862320;29;20419;-32
2023/03/13 02:13:56;;;;;;;17.37;5.23;;;10.40;99.90;;;;;;4861770;29;20113;-32
2023/03/13 02:16:22;;;;;;;12.47;5.50;;;10.50;99.90;;;;;;4862052;29;20606;-32
2023/03/13 02:18:48;;;;;;;16.95;6.25;;;10.50;99.90;;;;;;4861654;29;20088;-31
2023/03/13 02:21:45;;;;;;;10.85;6.03;;;10.50;99.90;;;;;;4860347;29;20467;-32
2023/03/13 02:24:29;;;;;;;13.88;6.15;;;10.60;99.90;;;;;;4856598;29;20124;-35
2023/03/13 02:26:55;;;;;;;12.75;6.20;;;10.60;99.90;;;;;;4859720;29;20040;-32
2023/03/13 02:29:20;;;;;;;10.68;6.72;;;10.60;99.90;;;;;;4862351;29;20462;-33
2023/03/13 02:31:47;;;;;;;15.60;6.63;;;10.70;99.90;;;;;;4861762;29;20124;-39
2023/03/13 02:34:17;;;;;;;14.52;6.40;;;10.70;99.90;;;;;;4861403;29;20097;-36
2023/03/13 02:36:44;;;;;;;11.77;7.18;;;10.70;99.90;;;;;;4862489;29;20169;-31
2023/03/13 02:39:11;;;;;;;14.98;7.13;;;10.80;99.90;;;;;;4862285;29;20044;-35
2023/03/13 02:41:38;;;;;;;12.30;4.57;;;10.80;99.90;;;;;;4860351;29;20040;-33
2023/03/13 02:44:04;;;;;;;14.60;6.35;;;10.80;99.90;;;;;;4861424;29;20491;-35
2023/03/13 02:46:31;;;;;;;12.63;6.63;;;10.90;99.90;;;;;;4861905;29;20037;-37
2023/03/13 02:48:58;;;;;;;18.27;7.13;;;10.90;99.90;;;;;;4861070;29;20033;-36
2023/03/13 02:51:37;;;;;;;16.75;7.03;;;11.00;99.90;;;;;;4860994;29;20433;-37
2023/03/13 02:54:06;;;;;;;16.40;6.38;;;11.00;99.90;;;;;;4862289;29;20041;-35
2023/03/13 02:56:35;;;;;;;17.10;7.90;;;11.00;99.90;;;;;;4861206;29;20141;-34
2023/03/13 02:59:00;;;;;;;;;;;11.10;99.90;;;;;;4860727;29;20583;-31
2023/03/13 03:01:26;;;;;;;11.07;5.78;;;11.20;99.90;;;;;;4861194;29;19923;-38
2023/03/13 03:03:51;;;;;;;11.40;5.97;;;11.20;99.90;;;;;;4860661;29;20041;-40
2023/03/13 03:06:17;;;;;;;10.00;5.57;;;11.30;99.90;;;;;;4860172;29;20033;-37
2023/03/13 03:08:43;;;;;;;10.98;4.93;;;11.30;99.90;;;;;;4860209;29;20033;-36
2023/03/13 03:11:09;;;;;;;15.10;5.72;;;11.40;99.90;;;;;;4860188;29;20037;-37
2023/03/13 03:13:35;;;;;;;8.45;5.30;;;11.40;99.90;;;;;;4861309;29;20033;-33
2023/03/13 03:16:17;;;;;;;11.07;4.80;;;11.50;99.90;;;;;;4860606;29;20383;-38
2023/03/13 03:18:43;;;;;;;11.57;5.43;;;11.50;99.90;;;;;;4860685;29;20029;-39
2023/03/13 03:21:09;;;;;;;11.85;4.65;;;11.60;99.90;;;;;;4854479;29;20029;-39
2023/03/13 03:23:35;;;;;;;13.20;4.35;;;11.60;99.90;;;;;;4861549;29;20045;-43
2023/03/13 03:26:03;;;;;;;14.50;4.88;;;11.60;99.90;;;;;;4859458;29;20049;-39
2023/03/13 03:28:29;;;;;;;15.27;4.32;;;11.60;99.90;;;;;;4855919;29;20078;-39
2023/03/13 03:30:55;;;;;;;8.23;4.72;;;11.70;99.90;;;;;;4861295;29;20029;-41
2023/03/13 03:33:22;;;;;;;16.45;4.68;;;11.70;99.90;;;;;;4860306;29;20044;-40
2023/03/13 03:35:48;;;;;;;10.13;4.25;;;11.70;99.90;;;;;;4858177;29;20121;-41
2023/03/13 03:38:14;;;;;;;6.95;4.43;;;11.80;99.90;;;;;;4859888;29;20049;-41
2023/03/13 03:40:40;;;;;;;6.45;3.97;;;11.80;99.90;;;;;;4860090;29;20029;-39
2023/03/13 03:43:06;;;;;;;7.68;3.95;;;11.90;99.90;;;;;;4859837;29;20037;-43
2023/03/13 03:45:31;;;;;;;15.63;4.22;;;11.90;99.90;;;;;;4860373;29;20041;-40
2023/03/13 03:48:00;;;;;;;13.10;4.07;;;11.90;99.90;;;;;;4860040;29;20044;-32
2023/03/13 03:50:26;;;;;;;7.25;4.22;;;11.80;99.90;;;;;;4860522;29;20048;-37
2023/03/13 03:52:52;;;;;;;13.40;3.40;;;11.90;99.90;;;;;;4860033;29;20395;-35
2023/03/13 03:55:18;;;;;;;5.50;3.05;;;12.00;99.90;;;;;;4860844;29;20040;-38
2023/03/13 03:57:44;;;;;;;13.07;3.47;;;12.00;99.90;;;;;;4860336;29;20041;-34
2023/03/13 04:00:12;;;;;;;4.53;3.33;;;12.00;99.90;;;;;;4860782;29;20041;-37
2023/03/13 04:02:38;;;;;;;10.18;3.65;;;12.00;99.90;;;;;;4859208;29;20086;-35
2023/03/13 04:05:04;;;;;;;4.00;2.67;;;12.00;99.90;;;;;;4860856;29;20108;-33
2023/03/13 04:07:30;;;;;;;12.05;4.43;;;12.00;99.90;;;;;;4859884;29;20123;-35
2023/03/13 04:09:56;;;;;;;5.47;2.92;;;12.00;99.90;;;;;;4860189;29;20539;-34
2023/03/13 04:12:21;;;;;;;6.18;3.15;;;12.00;99.90;;;;;;4859295;29;20394;-33
2023/03/13 04:14:47;;;;;;;8.35;3.45;;;12.10;99.90;;;;;;4860709;29;20041;-48
2023/03/13 04:17:13;;;;;;;8.85;3.42;;;12.10;99.90;;;;;;4877634;29;20044;-40
2023/03/13 04:19:38;;;;;;;5.75;3.65;;;12.10;99.90;;;;;;4863477;29;20479;-42
2023/03/13 04:22:04;;;;;;;5.32;3.65;;;12.10;99.90;;;;;;4860320;29;20479;-41
2023/03/13 04:24:30;;;;;;;9.35;3.67;;;12.20;99.90;;;;;;4860505;29;20474;-39
2023/03/13 04:26:56;;;;;;;8.43;3.20;;;12.20;99.90;;;;;;4859440;29;20037;-40
2023/03/13 04:29:21;;;;;;;6.85;3.30;;;12.20;99.90;;;;;;4860845;29;20116;-43
2023/03/13 04:31:47;;;;;;;4.00;3.40;;;12.20;99.90;;;;;;4860868;29;20037;-40
2023/03/13 04:34:12;;;;;;;7.28;3.58;;;12.20;99.90;;;;;;4859581;29;20052;-41
2023/03/13 04:36:38;;;;;;;7.32;3.13;;;12.20;99.90;;;;;;4859338;29;20113;-43
2023/03/13 04:39:04;;;;;;;11.55;4.07;;;12.30;99.90;;;;;;4860572;29;20105;-41
2023/03/13 04:41:29;;;;;;;6.30;3.75;;;12.20;99.90;;;;;;4859810;29;20065;-40
2023/03/13 04:43:55;;;;;;;6.97;3.55;;;12.30;99.90;;;;;;4850820;29;20506;-40
2023/03/13 04:46:21;;;;;;;5.78;3.33;;;12.30;99.90;;;;;;4860724;29;20483;-43
2023/03/13 04:48:46;;;;;;;8.75;3.92;;;12.30;99.90;;;;;;4858905;29;20032;-45
2023/03/13 04:51:12;;;;;;;5.82;3.35;;;12.40;99.90;;;;;;4858957;29;20409;-40
2023/03/13 04:53:38;;;;;;;7.50;3.92;;;12.30;99.90;;;;;;4859085;29;20369;-43
2023/03/13 04:56:03;;;;;;;11.25;4.03;;;12.30;99.90;;;;;;4860294;29;20071;-41
2023/03/13 04:58:29;;;;;;;5.00;2.95;;;12.40;99.90;;;;;;4859072;29;20033;-44
2023/03/13 05:00:55;;;;;;;7.20;3.55;;;12.40;99.90;;;;;;4859116;29;20062;-43
2023/03/13 05:03:21;;;;;;;13.50;4.07;;;12.50;99.90;;;;;;4860173;29;20121;-41
2023/03/13 05:05:47;;;;;;;7.13;3.17;;;12.50;99.90;;;;;;4859803;29;20053;-42
2023/03/13 05:08:13;;;;;;;8.50;2.90;;;12.50;99.90;;;;;;4860501;29;20042;-39
2023/03/13 05:10:41;;;;;;;10.68;3.47;;;12.60;99.90;;;;;;4859374;29;20092;-41
2023/03/13 05:13:06;;;;;;;8.13;4.07;;;12.50;99.90;;;;;;4858549;29;20494;-43
2023/03/13 05:15:32;;;;;;;14.27;3.42;;;12.60;99.90;;;;;;4845431;29;20038;-43
2023/03/13 05:17:58;;;;;;;7.22;2.90;;;12.60;99.90;;;;;;4855784;29;20038;-40
2023/03/13 05:20:23;;;;;;;10.40;2.60;;;12.60;99.90;;;;;;4862238;29;20030;-40
2023/03/13 05:22:49;;;;;;;5.90;2.85;;;12.70;99.90;;;;;;4857693;29;20475;-41
2023/03/13 05:25:15;;;;;;;5.60;2.80;;;12.70;99.90;;;;;;4862705;29;20436;-41
2023/03/13 05:27:40;;;;;;;14.15;3.00;;;12.70;99.90;;;;;;4859497;29;20424;-38
2023/03/13 05:30:07;;;;;;;13.25;2.30;;;12.70;99.90;;;;;;4862324;29;20037;-36
2023/03/13 05:32:32;;;;;;;8.05;2.80;;;12.70;99.90;;;;;;4860141;29;20394;-39
2023/03/13 05:34:58;;;;;;;10.48;3.72;;;12.70;99.90;;;;;;4861502;29;20034;-41
2023/03/13 05:37:24;;;;;;;8.30;2.80;;;12.70;99.90;;;;;;4858282;29;20090;-36
2023/03/13 05:39:49;;;;;;;14.63;3.33;;;12.80;99.90;;;;;;4860121;29;20438;-38
2023/03/13 05:42:15;;;;;;;5.65;2.72;;;12.80;99.90;;;;;;4860951;29;20029;-36
2023/03/13 05:44:40;;;;;;;12.10;2.25;;;12.80;99.90;;;;;;4860346;29;20033;-41
2023/03/13 05:47:06;;;;;;;11.18;2.40;;;12.90;99.90;;;;;;4863179;29;20030;-36
2023/03/13 05:49:32;;;;;;;11.40;2.47;;;12.90;99.90;;;;;;4859381;29;21785;-35
2023/03/13 05:51:57;;;;;;;7.57;2.28;;;12.90;99.90;;;;;;4857227;29;20036;-37
2023/03/13 05:54:23;;;;;;;4.47;2.75;;;12.80;99.90;;;;;;4861127;29;20034;-34
2023/03/13 05:56:49;;;;;;;6.43;2.47;;;12.80;99.90;;;;;;4860443;29;20518;-32
2023/03/13 05:59:15;;;;;;;11.45;2.50;;;12.90;99.90;;;;;;4860785;29;20025;-41
2023/03/13 06:01:41;;;;;;;10.32;2.33;;;12.90;99.90;;;;;;4861647;29;20026;-38
2023/03/13 06:04:06;;;;;;;3.90;1.58;;;12.90;99.90;;;;;;4859349;29;20057;-35
2023/03/13 06:06:32;;;;;;;7.45;1.88;;;12.90;99.90;;;;;;4860603;29;20406;-40
2023/03/13 06:08:57;;;;;;;6.70;2.92;;;12.90;99.90;;;;;;4861449;29;20038;-42
2023/03/13 06:11:23;;;;;;;5.10;2.45;;;12.90;99.90;;;;;;4861193;29;20049;-40
2023/03/13 06:13:51;;;;;;;10.00;2.53;;;12.90;99.90;;;;;;4860602;29;20479;-50
2023/03/13 06:16:17;;;;;;;4.97;1.92;;;12.90;99.90;;;;;;4862557;29;20046;-40
2023/03/13 06:18:43;;;;;;;5.68;2.38;;;13.00;99.90;;;;;;4859482;29;20127;-42
2023/03/13 06:21:09;;;;;;;9.27;2.33;;;13.00;99.90;;;;;;4861285;29;20390;-47
2023/03/13 06:23:35;;;;;;;5.90;2.10;;;13.00;99.90;;;;;;4862448;29;20065;-46
2023/03/13 06:26:01;;;;;;;6.03;2.65;;;13.00;99.90;;;;;;4862278;29;20475;-45
2023/03/13 06:28:27;;;;;;;17.23;3.65;;;13.00;99.90;;;;;;4860858;29;20029;-44
2023/03/13 06:30:52;;;;;;;6.80;2.10;;;13.10;99.90;;;;;;4859026;29;20399;-49
2023/03/13 06:33:18;;;;;;;5.72;2.30;;;13.10;99.90;;;;;;4861817;29;20030;-45
2023/03/13 06:35:44;;;;;;;6.15;2.50;;;13.10;99.90;;;;;;4862268;29;20034;-45
2023/03/13 06:38:10;;;;;;;3.22;2.00;;;13.10;99.90;;;;;;4855414;29;20082;-39
2023/03/13 06:40:36;;;;;;;9.48;2.70;;;13.10;99.90;;;;;;4862045;29;20065;-40
2023/03/13 06:43:02;;;;;;;4.63;1.95;;;13.10;99.90;;;;;;4855964;29;20057;-44
2023/03/13 06:45:28;;;;;;;7.55;2.10;;;13.10;99.90;;;;;;4857824;29;20041;-42
2023/03/13 06:47:53;;;;;;;6.38;1.98;;;13.10;99.90;;;;;;4858550;29;20045;-41
2023/03/13 06:50:19;;;;;;;7.05;2.50;;;13.10;99.90;;;;;;4859341;29;20025;-42
2023/03/13 06:52:47;;;;;;;9.88;2.20;;;13.10;99.90;;;;;;4861887;29;20034;-39
2023/03/13 06:55:12;;;;;;;3.40;1.83;;;13.10;99.90;;;;;;4858601;29;20041;-41
2023/03/13 06:57:38;;;;;;;8.18;2.58;;;13.20;99.90;;;;;;4858473;29;20029;-43
2023/03/13 07:00:05;;;;;;;6.78;2.72;;;13.10;99.90;;;;;;4861924;29;20048;-41
2023/03/13 07:02:31;;;;;;;10.07;2.00;;;13.10;99.90;;;;;;4860979;29;20061;-43
2023/03/13 07:04:57;;;;;;;10.25;3.28;;;13.10;99.90;;;;;;4861591;29;20069;-40
2023/03/13 07:07:23;;;;;;;10.15;2.70;;;13.00;99.90;;;;;;4861327;29;20030;-39
2023/03/13 07:09:49;;;;;;;7.45;2.10;;;12.90;99.90;;;;;;4846056;29;20491;-43
2023/03/13 07:12:16;;;;;;;19.35;3.28;;;12.80;99.90;;;;;;4850909;29;20036;-42
2023/03/13 07:14:41;;;;;;;6.20;2.97;;;12.70;99.90;;;;;;4857778;29;20048;-44
2023/03/13 07:17:07;;;;;;;6.47;2.97;;;12.60;99.90;;;;;;4858077;29;20037;-36
2023/03/13 07:19:33;;;;;;;10.00;2.40;;;12.50;99.90;;;;;;4859619;29;20082;-37
2023/03/13 07:21:58;;;;;;;4.03;2.47;;;12.50;99.90;;;;;;4859729;29;20443;-37
2023/03/13 07:24:24;;;;;;;4.13;2.45;;;12.50;99.90;;;;;;4859414;29;20440;-39
2023/03/13 07:26:49;;;;;;;6.63;2.60;;;12.60;99.90;;;;;;4860035;29;20070;-35
2023/03/13 07:29:15;;;;;;;9.95;2.30;;;12.60;99.90;;;;;;4861657;29;20077;-40
2023/03/13 07:31:41;;;;;;;7.22;2.47;;;12.50;99.90;;;;;;4861388;29;20514;-42
2023/03/13 07:34:06;;;;;;;13.30;3.83;;;12.60;99.90;;;;;;4859386;29;20383;-37
2023/03/13 07:36:34;;;;;;;8.35;2.70;;;12.60;99.90;;;;;;4856399;29;20025;-41
2023/03/13 07:38:59;;;;;;;7.32;3.08;;;12.60;99.90;;;;;;4858825;29;20065;-39
2023/03/13 07:41:25;;;;;;;11.13;3.08;;;12.50;99.90;;;;;;4857575;29;20605;-41
2023/03/13 07:43:51;;;;;;;5.88;2.53;;;12.50;99.90;;;;;;4860039;29;20040;-40
2023/03/13 07:46:18;;;;;;;9.60;2.15;;;12.50;99.90;;;;;;4859863;29;20105;-41
2023/03/13 07:48:45;;;;;;;6.25;2.55;;;12.50;99.90;;;;;;4859396;29;20036;-41
2023/03/13 07:51:22;;;;;;;8.90;2.58;;;12.50;99.90;;;;;;4860119;29;20037;-42
2023/03/13 07:53:48;;;;;;;7.35;2.40;;;12.50;99.90;;;;;;4842687;29;20045;-39
2023/03/13 07:56:16;;;;;;;8.15;2.38;;;12.50;99.90;;;;;;4851787;29;20045;-41
2023/03/13 07:58:42;;;;;;;;;;;12.50;99.90;;;;;;4855340;29;20368;-40
2023/03/13 08:01:17;;;;;;;9.00;2.13;;;12.60;99.90;;;;;;4859650;29;20357;-39
2023/03/13 08:03:44;;;;;;;10.73;2.63;;;12.70;99.90;;;;;;4858150;29;20483;-37
2023/03/13 08:06:12;;;;;;;9.88;2.15;;;12.70;99.90;;;;;;4858669;29;20037;-39
2023/03/13 08:08:38;;;;;;;11.55;2.88;;;12.80;99.90;;;;;;4861421;29;20029;-42
2023/03/13 08:11:09;;;;;;;8.27;2.30;;;12.80;99.90;;;;;;4860559;29;20037;-39
2023/03/13 08:13:36;;;;;;;3.65;2.15;;;13.00;99.90;;;;;;4850594;29;20065;-44
2023/03/13 08:16:10;;;;;;;4.55;1.83;;;13.10;99.90;;;;;;4857107;29;20127;-43
2023/03/13 08:18:38;;;;;;;9.05;1.88;;;13.20;99.90;;;;;;4860328;29;20022;-44
2023/03/13 08:21:14;;;;;;;4.35;2.03;;;13.20;99.90;;;;;;4860180;29;20052;-51
2023/03/13 08:23:40;;;;;;;8.43;2.40;;;13.10;99.90;;;;;;4858069;29;20497;-45
2023/03/13 08:26:08;;;;;;;10.30;2.35;;;13.10;99.90;;;;;;4858301;29;20415;-43
2023/03/13 08:28:35;;;;;;;4.95;2.88;;;13.20;99.90;;;;;;4856447;29;20048;-42
2023/03/13 08:31:18;;;;;;;4.03;1.73;;;13.20;99.90;;;;;;4860456;29;20497;-41
2023/03/13 08:33:45;;;;;;;5.28;1.83;;;13.20;99.90;;;;;;4854132;29;20036;-45
2023/03/13 08:36:24;;;;;;;6.10;2.25;;;13.20;99.90;;;;;;4858594;29;20087;-44
2023/03/13 08:38:51;;;;;;;5.40;3.05;;;13.10;99.90;;;;;;4858193;29;20085;-45
2023/03/13 08:41:23;;;;;;;5.00;2.23;;;13.10;99.90;;;;;;4859352;29;20044;-48
2023/03/13 08:43:51;;;;;;;10.23;2.30;;;13.10;99.90;;;;;;4854895;29;20280;-45
2023/03/13 08:46:17;;;;;;;5.90;2.30;;;13.00;99.90;;;;;;4856221;29;20036;-44
2023/03/13 08:48:43;;;;;;;1.73;1.63;;;13.00;99.90;;;;;;4859160;29;20033;-46
2023/03/13 08:51:14;;;;;;;9.45;2.03;;;13.10;99.90;;;;;;4859540;29;20490;-44
2023/03/13 08:53:41;;;;;;;6.18;1.90;;;13.10;99.90;;;;;;4863659;29;20104;-41
2023/03/13 08:56:12;;;;;;;9.18;1.50;;;13.10;99.90;;;;;;4861520;29;20112;-42
2023/03/13 08:58:38;;;;;;;5.60;1.67;;;13.10;99.90;;;;;;4863243;29;20038;-43
2023/03/13 09:01:07;;;;;;;4.43;1.50;;;13.20;99.90;;;;;;4863023;29;20390;-42
2023/03/13 09:03:33;;;;;;;6.22;2.08;;;13.30;99.90;;;;;;4861851;29;20053;-42
2023/03/13 09:05:59;;;;;;;6.45;2.30;;;13.20;99.90;;;;;;4863492;29;20470;-44
2023/03/13 09:08:25;;;;;;;5.30;1.50;;;13.40;99.90;;;;;;4861316;29;20097;-42
2023/03/13 09:11:04;;;;;;;2.83;1.48;;;13.60;99.90;;;;;;4862258;29;20032;-45
2023/03/13 09:13:32;;;;;;;7.90;1.60;;;13.70;99.90;;;;;;4860496;29;20503;-45
2023/03/13 09:16:00;;;;;;;6.70;1.70;;;13.90;99.90;;;;;;4861141;29;20033;-44
2023/03/13 09:18:27;;;;;;;10.27;1.80;;;14.00;99.90;;;;;;4862598;29;20085;-46
2023/03/13 09:20:53;;;;;;;4.60;1.77;;;14.20;99.90;;;;;;4863800;29;20522;-51
2023/03/13 09:23:20;;;;;;;6.88;1.15;;;14.40;99.90;;;;;;4862932;29;20037;-43
2023/03/13 09:25:46;;;;;;;14.40;1.70;;;14.60;99.90;;;;;;4863316;29;20033;-48
2023/03/13 09:28:11;;;;;;;4.47;1.35;;;14.60;99.90;;;;;;4861191;29;20034;-53
2023/03/13 09:30:37;;;;;;;2.63;1.48;;;14.70;99.90;;;;;;4861768;29;20037;-49
2023/03/13 09:33:03;;;;;;;7.22;1.40;;;14.90;99.90;;;;;;4862633;29;20029;-49
2023/03/13 09:35:29;;;;;;;4.43;1.60;;;15.00;99.90;;;;;;4862543;29;20380;-48
2023/03/13 09:37:55;;;;;;;4.15;1.10;;;15.10;99.90;;;;;;4861069;29;20105;-51
2023/03/13 09:40:23;;;;;;;4.45;1.40;;;15.20;99.90;;;;;;4862051;29;20033;-44
2023/03/13 09:42:49;;;;;;;;;;;15.20;99.90;;;;;;4862339;29;20026;-44
2023/03/13 09:45:39;;;;;;;5.47;1.25;;;15.20;99.90;;;;;;4861175;29;19970;-49
2023/03/13 09:48:07;;;;;;;2.47;1.02;;;15.30;99.90;;;;;;4857578;29;20077;-50
2023/03/13 09:50:38;;;;;;;3.33;1.20;;;15.30;99.90;;;;;;4861740;29;20487;-39
2023/03/13 09:53:37;;;;;;;3.97;0.93;;;15.30;99.90;;;;;;4862517;29;20053;-38
2023/03/13 09:56:05;;;;;;;7.55;0.93;;;15.30;99.90;;;;;;4839636;29;20552;-38
2023/03/13 09:58:33;;;;;;;5.10;1.05;;;15.40;99.90;;;;;;4863250;29;20514;-34
2023/03/13 10:01:04;;;;;;;4.38;1.50;;;15.40;99.90;;;;;;4862319;29;20068;-39
2023/03/13 10:03:34;;;;;;;1.52;0.82;;;15.40;99.90;;;;;;4860336;29;20124;-39
2023/03/13 10:06:18;;;;;;;2.95;1.42;;;15.50;99.90;;;;;;4861971;29;20122;-34
2023/03/13 10:08:44;;;;;;;1.98;0.80;;;15.50;99.90;;;;;;4860583;29;20034;-38
2023/03/13 10:11:29;;;;;;;5.97;1.02;;;15.70;99.90;;;;;;4862781;29;20392;-40
2023/03/13 10:14:21;;;;;;;2.35;0.70;;;15.80;99.90;;;;;;4862609;29;20029;-40
2023/03/13 10:17:09;;;;;;;1.70;0.80;;;15.90;99.90;;;;;;4862641;29;20460;-40
2023/03/13 10:19:41;;;;;;;1.67;0.85;;;15.90;99.90;;;;;;4862638;29;20368;-39
2023/03/13 10:22:28;;;;;;;3.15;0.80;;;16.00;99.90;;;;;;4862909;29;20398;-38
2023/03/13 10:24:59;;;;;;;5.55;0.88;;;16.00;99.90;;;;;;4862594;29;20432;-40
2023/03/13 10:27:25;;;;;;;3.42;1.10;;;16.10;99.90;;;;;;4862451;29;20033;-40
2023/03/13 10:29:50;;;;;;;8.75;1.00;;;16.10;99.90;;;;;;4862366;29;20105;-39
2023/03/13 10:32:17;;;;;;;2.78;1.10;;;16.00;99.90;;;;;;4862397;29;20638;-39
2023/03/13 10:35:00;;;;;;;1.08;0.70;;;16.10;99.90;;;;;;4862311;29;20037;-37
2023/03/13 10:37:28;;;;;;;5.28;0.90;;;16.10;99.90;;;;;;4862029;29;20033;-41
2023/03/13 10:40:10;;;;;;;4.32;1.38;;;16.10;99.90;;;;;;4862280;29;20026;-40
2023/03/13 10:42:44;;;;;;;9.32;1.23;;;16.20;99.90;;;;;;4862210;29;20030;-40
2023/03/13 10:45:18;;;;;;;5.10;0.98;;;16.20;99.90;;;;;;4862200;29;20399;-37
2023/03/13 10:47:44;;;;;;;6.35;1.38;;;16.40;99.90;;;;;;4862138;29;20037;-38
2023/03/13 10:50:19;;;;;;;7.93;1.65;;;16.40;99.90;;;;;;4862065;29;20040;-37
2023/03/13 10:52:47;;;;;;;5.32;1.00;;;16.50;99.90;;;;;;4862075;29;20094;-37
2023/03/13 10:55:18;;;;;;;10.52;1.30;;;16.60;99.90;;;;;;4861938;29;20579;-39
2023/03/13 10:57:59;;;;;;;10.40;1.10;;;16.50;99.90;;;;;;4861971;29;20039;-38
2023/03/13 11:00:30;;;;;;;5.68;0.95;;;16.50;99.90;;;;;;4861697;29;20037;-39
2023/03/13 11:02:55;;;;;;;6.55;1.27;;;16.50;99.90;;;;;;4861730;29;20131;-39
2023/03/13 11:05:39;;;;;;;4.97;1.00;;;16.50;99.90;;;;;;4861874;29;20190;-37
2023/03/13 11:08:21;;;;;;;2.95;1.30;;;16.60;99.90;;;;;;4861816;29;20509;-40
2023/03/13 11:11:17;;;;;;;5.72;0.82;;;16.50;99.90;;;;;;4876857;29;20073;-40
2023/03/13 11:13:43;;;;;;;8.68;0.90;;;16.50;99.90;;;;;;4878708;29;20041;-40
2023/03/13 11:16:27;;;;;;;4.95;1.55;;;16.60;99.90;;;;;;4880150;29;20105;-37
2023/03/13 11:18:52;;;;;;;4.25;1.23;;;16.50;99.90;;;;;;4880183;29;20040;-39
2023/03/13 11:21:38;;;;;;;3.67;0.90;;;16.50;99.90;;;;;;4880052;29;20479;-39
2023/03/13 11:24:18;;;;;;;3.42;1.45;;;16.60;99.90;;;;;;4880067;29;20036;-40
2023/03/13 11:27:02;;;;;;;5.72;0.63;;;16.60;99.90;;;;;;4880045;29;20033;-42
2023/03/13 11:30:00;;;;;;;9.63;1.15;;;16.60;99.90;;;;;;4879946;29;20065;-37
2023/03/13 11:32:50;;;;;;;5.75;1.23;;;16.70;99.90;;;;;;4838789;29;20410;-41
2023/03/13 11:35:48;;;;;;;3.83;0.70;;;16.90;99.90;;;;;;5131150;27;20387;-35
2023/03/13 11:38:39;;;;;;;2.80;0.60;;;17.10;99.90;;;;;;5131274;27;20028;-40
2023/03/13 11:41:23;;;;;;;4.47;1.00;;;17.30;99.90;;;;;;5131186;28;20152;-41
2023/03/13 11:44:02;;;;;;;1.50;0.68;;;17.20;99.90;;;;;;5131412;27;20035;-39
2023/03/13 11:46:43;;;;;;;3.20;0.60;;;17.20;99.90;;;;;;5131083;28;20031;-39
2023/03/13 11:49:22;;;;;;;7.80;2.03;;;17.20;99.90;;;;;;5131172;28;20054;-40
2023/03/13 11:52:17;;;;;;;1.50;0.47;;;17.00;99.90;;;;;;5131119;27;20031;-40
2023/03/13 11:55:09;;;;;;;2.25;0.52;;;17.00;99.90;;;;;;5130842;28;20161;-39
2023/03/13 11:58:06;;;;;;;3.85;1.33;;;16.80;99.90;;;;;;5130427;28;20048;-42
2023/03/13 12:00:39;;;;;;;1.75;0.70;;;16.70;99.90;;;;;;5130832;27;20489;-42
2023/03/13 12:03:13;;;;;;;8.25;1.65;;;16.50;99.90;;;;;;5129593;28;20535;-36
2023/03/13 12:05:59;;;;;;;4.57;1.40;;;16.50;99.90;;;;;;5130747;27;20055;-35
2023/03/13 12:08:39;;;;;;;7.80;1.05;;;16.40;99.90;;;;;;5130679;27;20027;-37
2023/03/13 12:11:05;;;;;;;9.98;1.88;;;16.20;99.90;;;;;;5130514;27;20024;-32
2023/03/13 12:13:38;;;;;;;8.25;1.42;;;16.10;99.90;;;;;;5130613;27;20046;-46
2023/03/13 12:16:11;;;;;;;7.38;1.20;;;16.10;99.90;;;;;;5130632;28;20047;-42
2023/03/13 12:18:42;;;;;;;7.60;1.38;;;16.20;99.90;;;;;;5130612;27;20106;-40
2023/03/13 12:21:18;;;;;;;9.27;0.98;;;16.30;99.90;;;;;;5130535;27;20031;-54
2023/03/13 12:23:59;;;;;;;6.35;1.02;;;16.20;99.90;;;;;;5130519;27;20483;-48
2023/03/13 12:26:40;;;;;;;5.82;1.27;;;16.40;99.90;;;;;;5130451;27;20491;-47
2023/03/13 12:29:15;;;;;;;3.97;0.85;;;16.50;99.90;;;;;;5130354;27;20039;-50
2023/03/13 12:32:03;;;;;;;13.38;1.27;;;16.80;99.90;;;;;;5130388;27;20551;-43
2023/03/13 12:34:40;;;;;;;;;;;16.90;99.90;;;;;;5130505;27;20503;-45
2023/03/13 12:37:07;;;;;;;;;;;16.90;99.90;;;;;;5130717;27;20302;-41
2023/03/13 12:39:49;;;;;;;7.90;1.52;;;17.00;99.90;;;;;;5130455;27;20363;-44
2023/03/13 12:42:23;;;;;;;4.07;1.08;;;17.00;99.90;;;;;;5130147;27;20076;-34
2023/03/13 12:44:49;;;;;;;9.23;1.70;;;16.70;99.90;;;;;;5117685;27;20043;-36
2023/03/13 12:47:50;;;;;;;10.35;1.77;;;16.70;99.90;;;;;;5095748;28;20543;-36
2023/03/13 12:50:35;;;;;;;16.80;1.85;;;16.60;99.90;;;;;;5095694;28;20107;-37
2023/03/13 12:53:20;;;;;;;10.25;1.60;;;16.60;99.90;;;;;;5095540;28;20031;-32
2023/03/13 12:56:14;;;;;;;6.05;1.30;;;16.70;99.90;;;;;;5095991;28;20043;-34
2023/03/13 12:58:52;;;;;;;6.80;1.88;;;16.70;99.90;;;;;;5095584;28;20033;-36
2023/03/13 13:01:29;;;;;;;11.30;1.80;;;16.70;99.90;;;;;;5095550;28;20028;-32